ADDS METAR Data INFO
IDs: Format: Raw Decoded Include TAF

Data at: 1348 UTC 23 Jun 2018

KAZC 231335Z AUTO 16003KT 10SM CLR 17/M02 A3000 RMK AO2
KAZC 231315Z AUTO 12004KT 10SM CLR 13/M03 A2999 RMK AO2
KAZC 231255Z AUTO 13004KT 10SM CLR 11/M05 A2999 RMK AO2
KAZC 231235Z AUTO 14005KT 10SM CLR 10/M05 A3000 RMK AO2
KAZC 231215Z AUTO 13003KT 10SM CLR 11/M05 A2999 RMK AO2
KAZC 231135Z AUTO 09003KT 10SM CLR 12/M04 A2999 RMK AO2
KAZC 231115Z AUTO 16005KT 10SM CLR 12/M05 A2998 RMK AO2
KAZC 231055Z AUTO 18004KT 10SM CLR 12/M05 A2998 RMK AO2
KAZC 231035Z AUTO 14004KT 10SM CLR 13/M05 A2998 RMK AO2
KAZC 231015Z AUTO 14006KT 10SM CLR 14/M04 A2997 RMK AO2
KAZC 230955Z AUTO 09006KT 10SM CLR 15/M05 A2997 RMK AO2
KAZC 230935Z AUTO 14006KT 10SM CLR 15/M05 A2998 RMK AO2
KAZC 230915Z AUTO 13004KT 10SM CLR 15/M05 A2998 RMK AO2
KAZC 230855Z AUTO 13004KT 10SM CLR 16/M04 A2998 RMK AO2
KAZC 230835Z AUTO 12007KT 10SM CLR 16/M03 A2998 RMK AO2
KAZC 230815Z AUTO 11005KT 10SM CLR 16/M05 A2998 RMK AO2
KAZC 230755Z AUTO 16005KT 10SM CLR 18/M07 A2999 RMK AO2
KAZC 230735Z AUTO 13003KT 10SM CLR 19/M06 A2998 RMK AO2
KAZC 230715Z AUTO 13006KT 10SM CLR 20/M05 A2999 RMK AO2
KAZC 230655Z AUTO 14007KT 10SM CLR 20/M06 A2999 RMK AO2
KAZC 230635Z AUTO 16003KT 10SM CLR 18/M06 A3000 RMK AO2
KAZC 230615Z AUTO 16003KT 10SM CLR 20/M07 A3000 RMK AO2
KAZC 230555Z AUTO 14003KT 10SM CLR 20/M05 A3000 RMK AO2
KAZC 230535Z AUTO 15004KT 10SM CLR 21/M06 A3000 RMK AO2
KAZC 230515Z AUTO 00000KT 10SM CLR 21/M06 A3000 RMK AO2
KAZC 230455Z AUTO 14003KT 10SM CLR 21/M06 A3000 RMK AO2
KAZC 230435Z AUTO 11005KT 10SM CLR 21/M03 A3000 RMK AO2
KAZC 230415Z AUTO 00000KT 10SM CLR 22/M03 A2999 RMK AO2
KAZC 230355Z AUTO 36003KT 10SM CLR 27/M05 A2999 RMK AO2
KAZC 230335Z AUTO 33003KT 10SM CLR 29/M05 A2998 RMK AO2
KAZC 230315Z AUTO 00000KT 10SM CLR 28/M05 A2997 RMK AO2
KAZC 230255Z AUTO 00000KT 10SM CLR 28/M03 A2997 RMK AO2
KAZC 230235Z AUTO 36003KT 10SM CLR 31/M05 A2997 RMK AO2
KAZC 230215Z AUTO 35006KT 10SM CLR 32/M05 A2997 RMK AO2
KAZC 230155Z AUTO 33005KT 10SM CLR 33/M05 A2998 RMK AO2
KAZC 230135Z AUTO 31010G17KT 10SM CLR 33/M05 A2997 RMK AO2
KAZC 230115Z AUTO 31008KT 10SM CLR 35/M05 A2997 RMK AO2
KAZC 230055Z AUTO 33010G14KT 290V350 10SM CLR 35/M04 A2997 RMK AO2
KAZC 230035Z AUTO 31009G16KT 10SM CLR 36/M03 A2998 RMK AO2
KAZC 230015Z AUTO 29012G15KT 10SM CLR 36/M03 A2998 RMK AO2
KAZC 222355Z AUTO 29012G15KT 10SM CLR 36/M03 A2999 RMK AO2
KAZC 222335Z AUTO 25009G17KT 10SM CLR 36/M05 A2999 RMK AO2
KAZC 222315Z AUTO 30009G15KT 10SM CLR 36/M03 A3000 RMK AO2
KAZC 222255Z AUTO 29007G17KT 10SM CLR 37/M02 A3000 RMK AO2
KAZC 222235Z AUTO 29008G19KT 10SM CLR 36/M01 A3001 RMK AO2
KAZC 222215Z AUTO 34005G15KT 10SM CLR 36/M02 A3002 RMK AO2
KAZC 222155Z AUTO 31011G17KT 10SM CLR 36/M01 A3002 RMK AO2
KAZC 222135Z AUTO 31006KT 10SM CLR 35/M01 A3003 RMK AO2
KAZC 222115Z AUTO 31011G19KT 10SM CLR 36/00 A3004 RMK AO2
KAZC 222055Z AUTO 32012G17KT 10SM CLR 35/M01 A3005 RMK AO2
KAZC 222035Z AUTO 33010G16KT 10SM CLR 34/M01 A3005 RMK AO2
KAZC 222015Z AUTO 29009G22KT 10SM CLR 35/M01 A3006 RMK AO2
KAZC 221955Z AUTO 31012G19KT 10SM CLR 36/M04 A3007 RMK AO2
KAZC 221935Z AUTO 27005G19KT 10SM CLR 35/M04 A3007 RMK AO2
KAZC 221915Z AUTO 33011G15KT 10SM CLR 34/M03 A3007 RMK AO2
KAZC 221855Z AUTO 35003KT 10SM CLR 34/M02 A3007 RMK AO2
KAZC 221840Z AUTO 35007KT 280V350 10SM CLR 33/M03 A3008 RMK AO2
KAZC 221815Z AUTO 29009KT 10SM CLR 33/M05 A3008 RMK AO2
KAZC 221755Z AUTO 32008G15KT 10SM CLR 33/M03 A3008 RMK AO2
KAZC 221735Z AUTO 29008KT 240V300 10SM CLR 33/M03 A3009 RMK AO2
KAZC 221715Z AUTO 31009G15KT 10SM CLR 33/M03 A3009 RMK AO2
KAZC 221655Z AUTO 31010KT 10SM CLR 32/M03 A3009 RMK AO2
KAZC 221635Z AUTO 31007KT 10SM CLR 31/M03 A3009 RMK AO2
KAZC 221615Z AUTO 30008KT 10SM CLR 31/M03 A3009 RMK AO2
KAZC 221555Z AUTO 31008KT 10SM CLR 30/M03 A3009 RMK AO2
KAZC 221535Z AUTO 30008KT 10SM CLR 30/M03 A3010 RMK AO2
KAZC 221515Z AUTO 31008KT 10SM CLR 28/M04 A3010 RMK AO2
KAZC 221455Z AUTO 33006KT 10SM CLR 27/M03 A3011 RMK AO2
KAZC 221435Z AUTO 31008KT 10SM CLR 26/M05 A3009 RMK AO2
KAZC 221415Z AUTO 30003KT 10SM CLR 23/M03 A3009 RMK AO2
KAZC 221355Z AUTO 00000KT 10SM CLR 20/M01 A3009 RMK AO2
KAZC 221335Z AUTO 00000KT 10SM CLR 18/00 A3009 RMK AO2
KAZC 221315Z AUTO 00000KT 10SM CLR 15/M02 A3008 RMK AO2
KAZC 221255Z AUTO 15003KT 10SM CLR 12/M03 A3008 RMK AO2
KAZC 221235Z AUTO 12003KT 10SM CLR 11/M04 A3007 RMK AO2
KAZC 221215Z AUTO 00000KT 10SM CLR 11/M05 A3007 RMK AO2
KAZC 221155Z AUTO 00000KT 10SM CLR 13/M05 A3007 RMK AO2
KAZC 221135Z AUTO 15003KT 10SM CLR 16/M03 A3006 RMK AO2
KAZC 221115Z AUTO 00000KT 10SM CLR 15/M03 A3005 RMK AO2
KAZC 221055Z AUTO 00000KT 10SM CLR 14/M03 A3005 RMK AO2
KAZC 221035Z AUTO 00000KT 10SM CLR 16/M05 A3005 RMK AO2
KAZC 221015Z AUTO 00000KT 10SM CLR 16/M06 A3005 RMK AO2
KAZC 220955Z AUTO 29003KT 10SM CLR 21/M05 A3006 RMK AO2
KAZC 220935Z AUTO 00000KT 10SM CLR 17/M05 A3005 RMK AO2
KAZC 220915Z AUTO 00000KT 10SM CLR 18/M05 A3005 RMK AO2
KAZC 220855Z AUTO 00000KT 10SM CLR 16/M05 A3005 RMK AO2
KAZC 220835Z AUTO 18003KT 10SM CLR 16/M06 A3005 RMK AO2
KAZC 220815Z AUTO 00000KT 10SM CLR 17/M06 A3004 RMK AO2
KAZC 220755Z AUTO 00000KT 10SM CLR 17/M06 A3004 RMK AO2
KAZC 220735Z AUTO 00000KT 10SM CLR 18/M06 A3004 RMK AO2
KAZC 220715Z AUTO 00000KT 10SM CLR 20/M05 A3004 RMK AO2
KAZC 220655Z AUTO 11006KT 10SM CLR 18/M03 A3004 RMK AO2
KAZC 220635Z AUTO 12006KT 10SM CLR 19/M04 A3004 RMK AO2
KAZC 220615Z AUTO 10005KT 10SM CLR 19/M03 A3005 RMK AO2
KAZC 220555Z AUTO 12004KT 10SM CLR 18/M03 A3005 RMK AO2
KAZC 220535Z AUTO 11003KT 10SM CLR 19/M05 A3004 RMK AO2
KAZC 220515Z AUTO 00000KT 10SM CLR 20/M06 A3005 RMK AO2
KAZC 220455Z AUTO 10003KT 10SM CLR 22/M07 A3005 RMK AO2
KAZC 220435Z AUTO 00000KT 10SM CLR 21/M07 A3005 RMK AO2
KAZC 220415Z AUTO 00000KT 10SM CLR 23/M08 A3004 RMK AO2
KAZC 220355Z AUTO 27003KT 10SM CLR 26/M09 A3004 RMK AO2
KAZC 220335Z AUTO 25007KT 10SM CLR 28/M10 A3003 RMK AO2
KAZC 220315Z AUTO 27003KT 10SM CLR 28/M10 A3003 RMK AO2
KAZC 220255Z AUTO 25005KT 10SM CLR 30/M10 A3003 RMK AO2
KAZC 220235Z AUTO 29007KT 10SM CLR 33/M09 A3002 RMK AO2
KAZC 220215Z AUTO 29006G09KT 10SM CLR 35/M10 A3002 RMK AO2
KAZC 220155Z AUTO 29009KT 10SM CLR 35/M10 A3002 RMK AO2